Time;durP1;ratioP1;P1;durP2;ratioP2;P2;SDS_P1;SDS_P2;PMS_P1;PMS_P2;Temp;Humidity;BMP_temperature;BMP_pressure;BME280_temperature;BME280_humidity;BME280_pressure;Samples;Min_cycle;Max_cycle;Signal;HPM_P1;HPM_P2
2021/12/05 00:24:29;;;;;;;;;;;;;;;12.21;69.94;101540.63;5043560;28;20448;-66
2021/12/05 00:27:04;;;;;;;21.20;7.53;;;;;;;12.14;69.90;101544.78;5045304;28;19920;-65
2021/12/05 00:29:58;;;;;;;21.10;8.40;;;;;;;12.20;69.50;101538.06;5047865;28;20485;-64
2021/12/05 00:43:39;;;;;;;18.03;8.00;;;;;;;12.21;68.37;101551.00;5036588;28;20071;-64
2021/12/05 00:56:52;;;;;;;21.23;7.33;;;;;;;12.01;67.86;101532.06;5038769;28;20076;-65
2021/12/05 01:02:30;;;;;;;29.03;9.47;;;;;;;12.01;68.17;101515.25;5057497;28;20090;-62
2021/12/05 01:05:29;;;;;;;22.23;7.37;;;;;;;12.00;68.42;101506.03;5039192;28;20164;-62
2021/12/05 01:08:12;;;;;;;18.07;7.87;;;;;;;12.04;68.26;101509.97;5029217;28;20049;-62
2021/12/05 01:11:00;;;;;;;26.20;8.20;;;;;;;11.98;68.43;101505.44;5046310;28;20049;-61
2021/12/05 01:16:00;;;;;;;22.35;7.10;;;;;;;11.94;68.45;101495.88;5034796;28;20045;-62
2021/12/05 01:18:27;;;;;;;15.63;7.97;;;;;;;11.92;68.55;101500.91;5034904;28;20061;-62
2021/12/05 01:20:58;;;;;;;22.53;7.10;;;;;;;11.76;68.52;101473.84;5044303;28;20045;-62
2021/12/05 01:26:09;;;;;;;22.17;6.57;;;;;;;11.78;68.76;101492.06;5044727;28;20558;-62
2021/12/05 01:34:10;;;;;;;16.33;5.47;;;;;;;11.78;69.11;101496.81;5050409;28;20049;-63
2021/12/05 02:15:27;;;;;;;33.57;12.27;;;;;;;12.07;67.79;101475.84;5036387;28;20116;-67
2021/12/05 02:31:55;;;;;;;19.97;6.47;;;;;;;11.94;67.34;101470.69;5055437;28;20132;-69
2021/12/05 02:34:36;;;;;;;22.53;6.63;;;;;;;12.02;67.53;101478.59;5058694;28;20121;-68
2021/12/05 02:39:47;;;;;;;12.90;6.37;;;;;;;12.14;67.38;101491.56;5071643;28;20047;-67
2021/12/05 02:42:27;;;;;;;15.60;6.30;;;;;;;12.19;67.18;101494.41;5065940;28;20091;-64
2021/12/05 02:44:54;;;;;;;10.65;6.05;;;;;;;12.15;67.22;101487.66;5061320;28;20088;-68
2021/12/05 02:47:25;;;;;;;20.00;6.47;;;;;;;12.23;67.02;101489.94;5064766;28;20079;-65
2021/12/05 02:49:55;;;;;;;18.73;6.40;;;;;;;12.29;67.15;101489.72;5069342;28;20128;-66
2021/12/05 02:52:30;;;;;;;17.02;6.57;;;;;;;12.34;66.99;101494.50;5069017;28;20124;-66
2021/12/05 02:55:08;;;;;;;26.07;6.70;;;;;;;12.34;67.10;101491.69;5069541;28;20124;-67
2021/12/05 02:57:47;;;;;;;16.20;5.47;;;;;;;12.38;67.05;101497.63;5059848;28;20099;-64
2021/12/05 03:00:21;;;;;;;19.15;7.22;;;;;;;12.40;67.00;101485.00;5062626;28;20496;-64
2021/12/05 03:02:51;;;;;;;21.00;6.00;;;;;;;12.43;66.80;101487.28;5062335;28;20078;-65
2021/12/05 03:05:21;;;;;;;14.63;6.20;;;;;;;12.38;66.72;101476.06;5066085;28;20166;-65
2021/12/05 03:07:50;;;;;;;15.25;5.97;;;;;;;12.50;66.69;101496.28;5070083;28;20535;-65
2021/12/05 03:10:20;;;;;;;20.07;7.40;;;;;;;12.51;66.80;101491.53;5067321;28;20127;-64
2021/12/05 03:12:47;;;;;;;16.10;5.60;;;;;;;12.55;66.63;101487.94;5077626;28;20072;-64
2021/12/05 03:15:17;;;;;;;14.47;6.03;;;;;;;12.57;66.50;101482.88;5062636;28;20119;-68
2021/12/05 03:17:44;;;;;;;26.25;7.20;;;;;;;12.53;66.54;101484.53;5065197;28;20098;-66
2021/12/05 03:20:14;;;;;;;32.90;5.33;;;;;;;12.60;66.62;101497.47;5070836;28;20076;-64
2021/12/05 03:22:41;;;;;;;18.20;6.65;;;;;;;12.53;66.60;101490.16;5065168;28;20532;-65
2021/12/05 03:25:08;;;;;;;20.63;5.50;;;;;;;12.60;66.67;101489.06;5061394;28;20139;-67
2021/12/05 03:27:35;;;;;;;11.87;4.93;;;;;;;12.24;66.90;101433.69;5065077;28;20063;-63
2021/12/05 03:30:05;;;;;;;11.33;4.33;;;;;;;12.54;66.61;101474.19;5063854;28;20142;-64
2021/12/05 03:32:33;;;;;;;15.13;5.97;;;;;;;12.48;66.62;101466.88;5077776;28;20071;-64
2021/12/05 03:35:00;;;;;;;13.90;3.97;;;;;;;12.38;66.97;101464.84;5059861;28;20049;-65
2021/12/05 03:37:27;;;;;;;13.83;3.87;;;;;;;12.26;67.24;101472.59;5064872;28;20051;-62
2021/12/05 03:39:54;;;;;;;8.33;2.90;;;;;;;12.07;67.32;101445.03;5069573;28;20072;-63
2021/12/05 03:42:21;;;;;;;16.60;3.20;;;;;;;12.28;67.33;101470.38;5058186;28;20132;-63
2021/12/05 03:44:48;;;;;;;12.83;3.20;;;;;;;12.27;67.08;101477.94;5064663;28;20079;-64
2021/12/05 03:47:15;;;;;;;7.70;2.07;;;;;;;12.23;67.33;101473.13;5056146;28;20084;-63
2021/12/05 03:49:42;;;;;;;13.07;2.93;;;;;;;12.23;67.08;101484.34;5059329;28;20051;-62
2021/12/05 03:52:15;;;;;;;15.03;3.70;;;;;;;12.17;67.21;101472.28;5063279;28;20465;-62
2021/12/05 03:54:43;;;;;;;7.40;2.40;;;;;;;12.28;66.90;101490.00;5070981;28;20461;-62
2021/12/05 03:57:11;;;;;;;9.27;3.03;;;;;;;12.29;66.71;101474.88;5065397;28;20123;-62
2021/12/05 03:59:38;;;;;;;12.00;2.07;;;;;;;12.17;66.57;101441.47;5069682;28;20131;-62
2021/12/05 04:02:07;;;;;;;10.90;2.43;;;;;;;12.26;66.58;101456.63;5064870;28;20098;-62
2021/12/05 04:04:35;;;;;;;8.60;2.55;;;;;;;12.30;66.59;101457.78;5065771;28;20531;-62
2021/12/05 04:07:03;;;;;;;9.47;2.43;;;;;;;12.28;66.51;101456.38;5063837;28;20463;-62
2021/12/05 04:09:31;;;;;;;14.40;2.63;;;;;;;12.28;66.49;101471.22;5064005;28;20433;-62
2021/12/05 04:12:02;;;;;;;9.50;2.30;;;;;;;12.27;66.30;101457.47;5069138;28;20143;-59
2021/12/05 04:14:36;;;;;;;8.83;2.20;;;;;;;12.25;66.32;101446.56;5065972;28;20073;-59
2021/12/05 04:17:07;;;;;;;12.03;2.37;;;;;;;12.28;66.41;101459.19;5073659;28;20109;-66
2021/12/05 04:19:35;;;;;;;7.40;2.93;;;;;;;12.13;66.48;101442.25;5042078;28;20091;-66
2021/12/05 04:22:03;;;;;;;9.93;2.23;;;;;;;12.20;66.47;101454.06;5063178;28;20495;-66
2021/12/05 04:24:31;;;;;;;8.90;2.57;;;;;;;12.22;66.45;101460.25;5055892;28;20544;-63
2021/12/05 04:26:58;;;;;;;10.90;2.17;;;;;;;12.24;66.46;101463.63;5052541;28;20037;-60
2021/12/05 04:29:26;;;;;;;6.87;2.03;;;;;;;12.25;66.46;101465.31;5057342;28;20113;-60
2021/12/05 04:31:53;;;;;;;9.97;2.50;;;;;;;12.09;66.23;101434.41;5069618;28;20061;-60
2021/12/05 04:34:20;;;;;;;8.00;2.10;;;;;;;12.28;66.21;101456.38;5062225;28;20448;-59
2021/12/05 04:36:47;;;;;;;10.53;2.13;;;;;;;12.31;66.20;101458.66;5061206;28;20131;-59
2021/12/05 04:39:14;;;;;;;13.90;2.23;;;;;;;12.26;66.08;101453.00;5062065;28;20572;-59
2021/12/05 04:41:42;;;;;;;10.73;2.60;;;;;;;12.31;66.14;101453.03;5068725;28;20072;-59
2021/12/05 04:44:09;;;;;;;7.40;2.17;;;;;;;12.31;66.27;101451.09;5069386;28;20151;-60
2021/12/05 04:46:37;;;;;;;11.40;3.00;;;;;;;12.29;66.24;101458.06;5070667;28;20123;-61
2021/12/05 04:49:06;;;;;;;12.87;2.57;;;;;;;12.22;66.59;101457.47;5063337;28;20123;-62
2021/12/05 04:51:38;;;;;;;10.67;2.73;;;;;;;12.23;66.47;101459.97;5065905;28;20082;-62
2021/12/05 04:54:07;;;;;;;11.73;2.03;;;;;;;12.25;66.26;101465.31;5061910;28;20082;-62
2021/12/05 04:56:35;;;;;;;8.30;2.30;;;;;;;12.22;66.40;101466.69;5061692;28;20128;-62
2021/12/05 04:59:04;;;;;;;11.77;2.83;;;;;;;12.26;66.10;101464.19;5047210;28;20047;-63
2021/12/05 05:01:32;;;;;;;9.53;2.93;;;;;;;12.22;66.11;101463.91;5065835;28;20079;-59
2021/12/05 05:04:00;;;;;;;15.33;2.23;;;;;;;12.25;66.03;101465.31;5066963;28;20489;-59
2021/12/05 05:06:27;;;;;;;16.47;2.47;;;;;;;12.17;66.35;101451.81;5064006;28;20127;-60
2021/12/05 05:08:55;;;;;;;7.43;1.67;;;;;;;12.16;66.42;101459.38;5062021;28;20092;-61
2021/12/05 05:11:24;;;;;;;7.43;2.77;;;;;;;12.05;66.41;101443.63;5053481;28;20444;-60
2021/12/05 05:13:51;;;;;;;5.27;1.70;;;;;;;12.14;66.34;101469.16;5062548;28;20045;-61
2021/12/05 05:16:21;;;;;;;10.17;2.27;;;;;;;12.11;66.47;101458.50;5057600;28;20072;-60
2021/12/05 05:18:52;;;;;;;14.93;2.20;;;;;;;12.17;66.49;101469.47;5062172;28;20044;-60
2021/12/05 05:24:07;;;;;;;10.57;2.03;;;;;;;11.98;66.83;101437.41;5063846;28;20113;-58
2021/12/05 05:29:38;;;;;;;4.55;1.88;;;;;;;12.15;66.86;101462.44;5036131;28;20074;-59
2021/12/05 05:40:38;;;;;;;9.20;2.20;;;;;;;12.08;66.86;101457.09;5059937;28;20064;-61
2021/12/05 05:50:41;;;;;;;17.08;2.40;;;;;;;12.10;66.93;101443.63;5064180;28;20465;-62
2021/12/05 05:53:08;;;;;;;4.05;1.55;;;;;;;12.18;67.21;101461.91;5057499;28;20500;-62
2021/12/05 05:55:36;;;;;;;17.00;2.93;;;;;;;12.19;67.11;101461.63;5058138;28;20071;-60
2021/12/05 05:58:15;;;;;;;10.77;3.20;;;;;;;12.18;67.17;101464.72;5062096;28;20394;-61
2021/12/05 06:03:39;;;;;;;10.13;3.37;;;;;;;12.25;66.77;101487.72;5048572;28;20144;-62
2021/12/05 06:06:09;;;;;;;17.50;3.50;;;;;;;12.23;66.96;101490.78;5059492;28;20139;-60
2021/12/05 06:08:37;;;;;;;12.88;2.42;;;;;;;12.19;66.98;101477.59;5063771;28;20136;-62
2021/12/05 06:11:11;;;;;;;12.73;2.00;;;;;;;12.25;66.89;101488.56;5066749;28;20076;-62
2021/12/05 06:13:39;;;;;;;11.30;2.10;;;;;;;12.12;67.17;101488.19;5061381;28;20041;-61
2021/12/05 06:16:09;;;;;;;15.00;2.43;;;;;;;12.19;67.19;101508.41;5060450;28;20206;-61
2021/12/05 06:18:36;;;;;;;18.40;3.97;;;;;;;12.07;66.96;101487.03;5075247;28;20404;-60
2021/12/05 06:21:05;;;;;;;11.07;3.50;;;;;;;12.16;67.12;101520.13;5066597;28;20132;-61
2021/12/05 06:23:32;;;;;;;24.17;3.17;;;;;;;12.11;67.02;101503.31;5070968;28;20079;-59
2021/12/05 06:26:00;;;;;;;15.03;2.83;;;;;;;12.07;67.12;101501.03;5070722;28;20182;-60
2021/12/05 06:42:06;;;;;;;11.50;4.00;;;;;;;11.98;67.56;101511.03;5056077;28;20467;-60
2021/12/05 06:47:25;;;;;;;8.43;1.90;;;;;;;11.93;67.97;101504.53;5067734;28;20047;-59
2021/12/05 06:49:54;;;;;;;7.53;2.13;;;;;;;11.91;68.00;101510.41;5060205;28;20045;-61
2021/12/05 06:52:41;;;;;;;10.43;2.60;;;;;;;11.88;67.99;101499.75;5052994;28;20064;-63
2021/12/05 06:55:08;;;;;;;13.73;1.60;;;;;;;12.02;67.96;101514.97;5070473;28;20067;-68
2021/12/05 06:57:35;;;;;;;12.40;1.93;;;;;;;12.05;67.90;101514.44;5071354;28;20064;-60
2021/12/05 07:00:06;;;;;;;7.73;2.30;;;;;;;12.12;67.63;101527.38;5059005;28;20076;-59
2021/12/05 07:02:34;;;;;;;12.20;3.07;;;;;;;11.99;67.65;101495.91;5060458;28;20049;-60
2021/12/05 07:05:18;;;;;;;9.80;2.27;;;;;;;12.04;67.55;101489.53;5060883;28;20067;-61
2021/12/05 07:07:45;;;;;;;7.03;2.53;;;;;;;12.24;67.63;101508.41;5054330;28;20131;-60
2021/12/05 07:10:14;;;;;;;8.40;1.40;;;;;;;12.25;67.72;101516.56;5069450;28;20072;-60
2021/12/05 07:13:34;;;;;;;11.20;2.00;;;;;;;12.24;67.43;101511.22;5067701;28;20141;-60
2021/12/05 07:26:15;;;;;;;13.73;2.43;;;;;;;12.17;67.64;101513.41;5065836;28;20548;-58
2021/12/05 07:42:30;;;;;;;10.07;2.53;;;;;;;12.28;67.61;101509.59;5069736;28;20691;-59
2021/12/05 07:45:01;;;;;;;8.40;1.83;;;;;;;12.22;67.49;101489.09;5064716;28;20098;-59
2021/12/05 07:47:31;;;;;;;10.87;2.37;;;;;;;12.37;67.42;101507.97;5048752;28;20595;-58
2021/12/05 07:50:04;;;;;;;19.17;2.75;;;;;;;12.40;67.42;101515.84;5055605;28;20083;-59
2021/12/05 07:52:32;;;;;;;11.43;2.47;;;;;;;12.42;67.45;101516.41;5058440;28;20135;-59
2021/12/05 07:55:26;;;;;;;9.20;2.47;;;;;;;12.47;67.34;101519.25;5056935;28;20136;-59
2021/12/05 08:00:52;;;;;;;19.07;3.87;;;;;;;12.55;67.13;101515.09;5058316;28;20136;-58
2021/12/05 08:14:28;;;;;;;7.23;2.30;;;;;;;12.62;66.35;101532.53;5059491;28;20576;-59
2021/12/05 08:16:56;;;;;;;11.20;3.07;;;;;;;12.42;66.22;101510.81;5055000;28;20142;-59
2021/12/05 08:19:23;;;;;;;7.77;2.80;;;;;;;12.56;66.20;101528.84;5048682;28;20052;-59
2021/12/05 08:21:56;;;;;;;9.23;2.17;;;;;;;12.54;66.30;101525.44;5065196;28;20041;-58
2021/12/05 08:24:25;;;;;;;9.23;1.97;;;;;;;12.48;66.40;101515.34;5063694;28;20079;-58
2021/12/05 08:26:53;;;;;;;8.50;2.40;;;;;;;12.67;66.57;101521.34;5065652;28;20062;-59
2021/12/05 08:29:30;;;;;;;10.00;2.57;;;;;;;12.89;66.48;101534.34;5059777;28;20076;-59
2021/12/05 08:32:11;;;;;;;10.33;2.57;;;;;;;13.10;66.35;101526.91;5055774;28;20107;-58
2021/12/05 08:37:38;;;;;;;12.07;2.60;;;;;;;13.63;65.74;101533.25;5060237;28;20076;-58
2021/12/05 08:40:39;;;;;;;11.63;2.07;;;;;;;13.88;65.52;101532.44;5063556;28;20079;-58
2021/12/05 08:43:38;;;;;;;12.83;1.83;;;;;;;14.27;65.40;101527.13;5057864;28;20072;-58
2021/12/05 09:22:50;;;;;;;8.40;2.50;;;;;;;21.56;52.60;101553.19;5053830;28;20140;-58
2021/12/05 09:30:08;;;;;;;10.43;2.33;;;;;;;22.46;49.78;101536.38;5053686;28;20124;-58
2021/12/05 10:14:24;;;;;;;10.55;2.88;;;;;;;16.26;53.56;101560.09;5040153;28;20543;-63
2021/12/05 10:37:17;;;;;;;13.40;3.58;;;;;;;15.37;55.76;101576.97;5058377;28;20124;-76
2021/12/05 10:39:44;;;;;;;16.30;4.95;;;;;;;15.40;55.71;101584.00;5064867;28;20543;-73
2021/12/05 10:42:41;;;;;;;13.88;5.70;;;;;;;15.46;56.08;101568.78;5061512;28;20128;-73
2021/12/05 10:45:33;;;;;;;11.45;3.00;;;;;;;15.61;56.22;101579.09;5070596;28;20080;-71
2021/12/05 10:48:07;;;;;;;11.55;3.17;;;;;;;15.84;56.74;101564.38;5069255;28;20800;-70
2021/12/05 10:50:42;;;;;;;11.68;3.50;;;;;;;16.33;57.14;101573.84;5071628;28;20139;-72
2021/12/05 10:53:32;;;;;;;10.25;3.20;;;;;;;17.64;56.60;101561.44;5072189;28;20536;-71
2021/12/05 10:56:19;;;;;;;5.28;2.85;;;;;;;18.94;54.79;101560.75;5067620;28;20131;-68
2021/12/05 10:58:53;;;;;;;12.32;4.13;;;;;;;19.79;53.43;101561.25;5066650;28;20124;-69
2021/12/05 11:01:35;;;;;;;10.02;3.72;;;;;;;20.62;52.21;101552.44;5060520;28;20121;-70
2021/12/05 11:04:12;;;;;;;12.15;3.40;;;;;;;21.53;50.51;101546.16;5067065;28;20053;-70
2021/12/05 11:07:12;;;;;;;5.78;2.75;;;;;;;22.12;49.55;101530.66;5069566;28;20407;-70
2021/12/05 11:09:47;;;;;;;5.80;2.33;;;;;;;22.73;48.73;101534.25;5070732;28;20459;-70
2021/12/05 11:12:18;;;;;;;8.45;1.75;;;;;;;22.36;46.72;101533.88;5074686;28;20131;-70
2021/12/05 11:14:52;;;;;;;6.43;2.22;;;;;;;21.87;47.18;101535.16;5069155;28;20144;-69
2021/12/05 11:17:25;;;;;;;7.90;2.67;;;;;;;22.09;45.71;101537.03;5074701;28;20492;-70
2021/12/05 11:19:59;;;;;;;4.05;2.35;;;;;;;22.35;45.05;101523.63;5074425;28;20044;-68
2021/12/05 11:22:29;;;;;;;8.63;2.47;;;;;;;22.63;44.34;101520.41;5073620;28;20052;-69
2021/12/05 11:24:56;;;;;;;10.38;4.20;;;;;;;22.51;44.34;101546.72;5071614;28;20056;-69
2021/12/05 11:27:41;;;;;;;10.65;2.83;;;;;;;22.07;44.42;101550.75;5072568;28;20084;-69
2021/12/05 11:30:13;;;;;;;9.80;3.53;;;;;;;21.29;45.90;101537.19;5055425;28;20080;-69
2021/12/05 11:32:53;;;;;;;11.35;2.67;;;;;;;20.83;46.64;101530.00;5071026;28;20059;-70
2021/12/05 11:35:42;;;;;;;12.32;2.42;;;;;;;20.18;46.96;101516.41;5067291;28;20091;-69
2021/12/05 11:38:22;;;;;;;8.25;1.80;;;;;;;19.66;48.15;101533.78;5067213;28;20056;-69
2021/12/05 11:40:55;;;;;;;4.53;1.27;;;;;;;18.89;48.81;101512.72;5060113;28;20139;-70
2021/12/05 11:43:30;;;;;;;8.30;1.60;;;;;;;18.30;49.46;101510.72;5063914;28;20057;-68
2021/12/05 11:46:12;;;;;;;11.52;3.85;;;;;;;17.80;50.48;101525.34;5060297;28;20056;-67
2021/12/05 11:48:46;;;;;;;10.00;2.65;;;;;;;17.44;51.30;101523.03;5038639;28;20619;-68
2021/12/05 11:51:34;;;;;;;6.28;2.35;;;;;;;17.21;51.38;101510.63;5053990;28;20494;-69
2021/12/05 11:54:05;;;;;;;5.15;1.73;;;;;;;16.51;52.41;101508.31;5055162;28;20067;-58
2021/12/05 11:56:35;;;;;;;8.95;1.58;;;;;;;15.84;53.16;101538.16;5061025;28;20040;-58
2021/12/05 11:59:22;;;;;;;3.15;1.30;;;;;;;15.27;53.95;101525.50;5061631;28;20135;-59
2021/12/05 12:02:07;;;;;;;3.92;1.35;;;;;;;15.14;54.36;101539.09;5058076;28;20049;-58
2021/12/05 12:05:14;;;;;;;7.20;1.35;;;;;;;15.00;54.74;101545.59;5061491;28;20087;-60
2021/12/05 12:07:48;;;;;;;4.88;1.60;;;;;;;14.95;54.84;101542.81;5068834;28;20488;-58
2021/12/05 12:10:33;;;;;;;4.25;1.05;;;;;;;14.82;55.03;101533.00;5061553;28;20123;-59
2021/12/05 12:13:11;;;;;;;6.43;1.60;;;;;;;14.95;55.02;101540.84;5063981;28;20044;-59
2021/12/05 12:15:41;;;;;;;5.57;1.20;;;;;;;14.89;55.30;101528.75;5054369;28;20137;-58
2021/12/05 12:18:17;;;;;;;;;;;;;;;14.95;55.31;101520.31;5068353;28;20503;-58
2021/12/05 12:20:47;;;;;;;4.03;1.43;;;;;;;14.96;55.60;101499.47;5065130;28;20452;-59
2021/12/05 12:23:15;;;;;;;7.72;2.03;;;;;;;15.34;55.08;101500.72;5054292;28;20471;-59
2021/12/05 12:25:45;;;;;;;3.57;1.40;;;;;;;15.80;54.44;101492.84;5054902;28;20058;-58
2021/12/05 12:28:14;;;;;;;9.85;2.08;;;;;;;16.66;53.80;101506.47;5059879;28;20518;-58
2021/12/05 12:30:48;;;;;;;8.05;2.00;;;;;;;17.08;52.84;101499.22;5063220;28;21632;-58
2021/12/05 12:33:29;;;;;;;4.78;1.83;;;;;;;17.80;52.10;101499.09;5069527;28;20140;-58
2021/12/05 12:35:57;;;;;;;6.80;3.10;;;;;;;18.38;51.44;101498.69;5057693;28;20045;-59
2021/12/05 12:38:36;;;;;;;2.92;1.63;;;;;;;19.73;49.69;101499.34;5059776;28;20561;-57
2021/12/05 12:41:20;;;;;;;11.55;2.42;;;;;;;20.82;47.93;101506.47;5039774;28;20050;-58
2021/12/05 12:44:13;;;;;;;5.85;2.85;;;;;;;22.18;46.03;101496.03;5055077;28;20147;-59
2021/12/05 12:46:44;;;;;;;5.90;2.08;;;;;;;23.02;43.95;101496.50;5049236;28;20048;-57
2021/12/05 12:49:14;;;;;;;7.15;2.67;;;;;;;23.26;43.04;101501.56;5052098;28;20497;-58
2021/12/05 12:51:50;;;;;;;;;;;;;;;24.19;42.10;101504.44;5050829;28;20156;-58
2021/12/05 12:54:28;;;;;;;9.35;3.13;;;;;;;24.60;41.77;101509.22;5064212;28;20015;-57
2021/12/05 12:57:19;;;;;;;11.35;4.60;;;;;;;24.96;40.08;101504.78;5051047;28;20087;-59
2021/12/05 13:00:01;;;;;;;6.15;2.85;;;;;;;25.25;39.20;101498.03;5058687;28;20261;-58
2021/12/05 13:05:52;;;;;;;8.98;2.70;;;;;;;26.42;37.91;101491.41;5059846;28;20132;-58
2021/12/05 13:11:20;;;;;;;5.30;3.03;;;;;;;25.96;37.16;101474.56;5066326;28;20444;-58
2021/12/05 13:14:00;;;;;;;5.18;2.95;;;;;;;25.87;37.06;101470.19;5064807;28;20052;-59
2021/12/05 13:16:32;;;;;;;6.45;2.15;;;;;;;24.98;37.29;101457.50;5060515;28;20076;-57
2021/12/05 13:19:10;;;;;;;9.55;2.75;;;;;;;23.22;38.69;101459.88;5063242;28;20054;-59
2021/12/05 13:21:42;;;;;;;10.27;2.15;;;;;;;21.59;40.28;101455.06;5064621;28;20079;-59
2021/12/05 13:24:33;;;;;;;8.57;2.28;;;;;;;20.50;42.27;101448.03;5059542;28;20443;-57
2021/12/05 13:27:03;;;;;;;10.05;2.08;;;;;;;19.62;42.84;101459.91;5067143;28;20072;-58
2021/12/05 13:29:32;;;;;;;;;;;;;;;18.56;43.97;101455.34;5063210;28;20079;-56
2021/12/05 13:32:25;;;;;;;5.97;1.80;;;;;;;17.81;45.19;101452.72;5064057;28;20031;-57
2021/12/05 13:34:55;;;;;;;6.53;2.03;;;;;;;17.48;45.94;101456.31;5056283;28;20060;-57
2021/12/05 13:37:33;;;;;;;6.90;1.75;;;;;;;17.28;46.54;101463.09;5059816;28;20505;-56
2021/12/05 13:40:21;;;;;;;8.05;1.67;;;;;;;17.02;46.71;101456.13;5060113;28;20057;-55
2021/12/05 13:43:05;;;;;;;13.50;1.70;;;;;;;16.90;47.44;101455.72;5058813;28;20048;-63
2021/12/05 13:45:43;;;;;;;2.67;1.15;;;;;;;16.80;47.16;101454.69;5066471;28;20044;-58
2021/12/05 13:48:25;;;;;;;7.75;2.20;;;;;;;16.40;47.82;101438.22;5064118;28;20048;-59
2021/12/05 13:50:57;;;;;;;14.07;2.90;;;;;;;16.33;48.26;101447.84;5067714;28;20085;-60
2021/12/05 13:53:44;;;;;;;6.22;1.60;;;;;;;15.44;48.61;101328.94;5061071;28;20132;-61
2021/12/05 13:56:13;;;;;;;5.78;1.40;;;;;;;16.17;48.96;101446.34;5055827;28;20040;-59
2021/12/05 13:58:45;;;;;;;10.60;1.98;;;;;;;15.94;49.39;101435.84;5060472;28;20182;-64
2021/12/05 14:01:32;;;;;;;11.25;2.00;;;;;;;15.96;50.45;101442.00;5061519;28;20072;-62
2021/12/05 14:04:08;;;;;;;7.32;2.20;;;;;;;15.99;50.82;101455.50;5068278;28;20040;-62
2021/12/05 14:06:43;;;;;;;5.75;2.25;;;;;;;16.02;50.70;101438.84;5067500;28;20045;-61
2021/12/05 14:09:15;;;;;;;10.52;2.60;;;;;;;16.00;51.02;101434.66;5062729;28;21800;-60
2021/12/05 14:12:00;;;;;;;5.07;1.50;;;;;;;15.89;51.23;101445.16;5055979;28;20049;-62
2021/12/05 14:14:35;;;;;;;13.48;2.15;;;;;;;15.92;51.32;101441.75;5057758;28;20468;-64
2021/12/05 14:17:06;;;;;;;8.52;2.03;;;;;;;15.97;51.90;101436.09;5057674;28;20103;-62
2021/12/05 14:19:35;;;;;;;10.80;2.08;;;;;;;16.16;51.91;101441.81;5055486;28;20148;-63
2021/12/05 14:22:13;;;;;;;9.65;2.25;;;;;;;16.08;52.47;101446.13;5063315;28;20515;-63
2021/12/05 14:24:44;;;;;;;10.77;2.42;;;;;;;16.22;52.39;101457.56;5060564;28;20556;-64
2021/12/05 14:27:19;;;;;;;11.55;1.85;;;;;;;16.17;52.50;101434.22;5057971;28;20140;-65
2021/12/05 14:29:48;;;;;;;11.27;2.17;;;;;;;16.12;52.68;101449.19;5059776;28;20072;-65
2021/12/05 14:32:28;;;;;;;17.52;1.95;;;;;;;16.13;52.88;101448.06;5072308;28;20484;-65
2021/12/05 14:35:00;;;;;;;9.23;2.42;;;;;;;16.05;53.17;101448.69;5066431;28;20080;-64
2021/12/05 14:37:33;;;;;;;12.98;2.10;;;;;;;15.82;53.37;101453.94;5062906;28;20084;-62
2021/12/05 14:40:04;;;;;;;10.32;2.53;;;;;;;15.80;53.66;101453.44;5062117;28;22337;-63
2021/12/05 14:42:34;;;;;;;7.82;2.40;;;;;;;15.88;53.80;101451.94;5064882;28;20064;-60
2021/12/05 14:45:07;;;;;;;10.35;1.90;;;;;;;15.91;54.29;101453.34;5064955;28;20581;-62
2021/12/05 14:47:36;;;;;;;11.20;2.35;;;;;;;15.85;54.20;101464.63;5070393;28;20095;-60
2021/12/05 14:50:10;;;;;;;6.97;1.83;;;;;;;15.73;54.69;101452.91;5070691;28;20044;-60
2021/12/05 14:52:39;;;;;;;9.40;3.50;;;;;;;15.70;55.01;101461.13;5070046;28;20447;-62
2021/12/05 14:55:09;;;;;;;12.93;2.17;;;;;;;15.69;55.19;101454.66;5069687;28;20491;-60
2021/12/05 14:57:46;;;;;;;10.85;2.50;;;;;;;15.76;55.27;101462.72;5041364;28;20513;-60
2021/12/05 15:00:19;;;;;;;10.23;2.10;;;;;;;15.76;55.62;101459.91;5055921;28;20049;-59
2021/12/05 15:02:47;;;;;;;8.40;2.58;;;;;;;15.65;55.47;101459.97;5061687;28;20463;-59
2021/12/05 15:05:19;;;;;;;13.30;3.30;;;;;;;15.52;55.72;101440.06;5065345;28;20140;-60
2021/12/05 15:07:46;;;;;;;10.65;1.42;;;;;;;15.79;55.93;101473.41;5060518;28;20135;-59
2021/12/05 15:10:20;;;;;;;12.40;2.20;;;;;;;15.89;55.79;101467.69;5067570;28;20140;-58
2021/12/05 15:12:53;;;;;;;16.45;1.98;;;;;;;15.75;55.72;101461.91;5068404;28;20098;-59
2021/12/05 15:15:22;;;;;;;4.05;1.45;;;;;;;15.61;56.09;101486.19;5062798;28;20048;-59
2021/12/05 15:17:54;;;;;;;4.47;1.23;;;;;;;15.22;56.29;101488.97;5068168;28;20103;-60
2021/12/05 15:20:26;;;;;;;4.40;1.65;;;;;;;14.46;58.57;101474.88;5069331;28;20079;-59
2021/12/05 15:23:03;;;;;;;6.73;2.07;;;;;;;14.15;59.20;101492.88;5065743;28;20124;-59
2021/12/05 15:25:31;;;;;;;9.10;2.77;;;;;;;13.98;59.31;101488.41;5069196;28;20076;-60
2021/12/05 15:27:59;;;;;;;11.47;2.33;;;;;;;14.10;59.25;101502.16;5068935;28;20051;-60
2021/12/05 15:30:30;;;;;;;21.03;3.70;;;;;;;14.20;59.04;101513.38;5067061;28;20047;-59
2021/12/05 15:33:04;;;;;;;8.87;2.80;;;;;;;14.34;58.62;101513.66;5058432;28;21831;-60
2021/12/05 15:35:33;;;;;;;15.00;2.47;;;;;;;14.43;58.73;101509.16;5068062;28;20049;-60
2021/12/05 15:38:07;;;;;;;12.73;2.47;;;;;;;14.44;58.67;101484.69;5068289;28;20053;-63
2021/12/05 15:40:44;;;;;;;9.60;1.50;;;;;;;14.49;58.61;101506.31;5057163;28;20099;-66
2021/12/05 15:43:16;;;;;;;13.73;2.00;;;;;;;14.24;58.81;101496.78;5063000;28;20075;-64
2021/12/05 15:45:46;;;;;;;9.00;1.90;;;;;;;14.10;58.99;101499.34;5062754;28;20120;-71
2021/12/05 15:48:28;;;;;;;9.57;2.60;;;;;;;14.07;59.22;101510.28;5067610;28;20799;-59
2021/12/05 15:50:57;;;;;;;4.23;1.77;;;;;;;13.98;59.26;101501.56;5065673;28;20056;-62
2021/12/05 15:53:26;;;;;;;5.50;2.20;;;;;;;14.02;59.28;101508.34;5066566;28;20040;-62
2021/12/05 15:56:02;;;;;;;15.03;3.60;;;;;;;13.95;59.51;101511.41;5068202;28;20144;-61
2021/12/05 15:58:38;;;;;;;9.47;4.27;;;;;;;13.99;59.37;101509.72;5067478;28;20630;-64
2021/12/05 16:01:11;;;;;;;15.17;3.97;;;;;;;14.01;59.51;101512.25;5058623;28;20043;-62
2021/12/05 16:03:43;;;;;;;9.27;3.07;;;;;;;13.96;59.67;101510.28;5051112;28;20076;-59
2021/12/05 16:06:14;;;;;;;13.47;3.00;;;;;;;14.03;59.70;101507.19;5061788;28;20049;-54
2021/12/05 16:08:43;;;;;;;7.53;2.57;;;;;;;14.04;59.61;101496.81;5071310;28;20059;-56
2021/12/05 16:11:14;;;;;;;3.90;1.77;;;;;;;13.80;59.72;101458.06;5070578;28;20049;-59
2021/12/05 16:13:45;;;;;;;6.40;1.90;;;;;;;14.08;59.62;101486.69;5073413;28;20049;-60
2021/12/05 16:16:24;;;;;;;7.80;3.20;;;;;;;14.18;59.49;101497.91;5071068;28;20075;-61
2021/12/05 16:19:02;;;;;;;10.37;3.13;;;;;;;14.15;59.36;101509.72;5059318;28;20132;-61
2021/12/05 16:21:32;;;;;;;12.83;3.07;;;;;;;14.14;59.49;101513.66;5064969;28;20131;-66
2021/12/05 16:24:15;;;;;;;6.10;2.65;;;;;;;13.99;59.51;101506.94;5062728;28;20073;-57
2021/12/05 16:26:44;;;;;;;9.00;2.60;;;;;;;13.98;59.42;101505.25;5062148;28;20471;-60
2021/12/05 16:29:18;;;;;;;11.63;3.00;;;;;;;13.97;59.52;101517.56;5065725;28;20156;-57
2021/12/05 16:31:55;;;;;;;7.23;2.47;;;;;;;13.94;59.43;101512.53;5060720;28;20123;-52
2021/12/05 16:34:32;;;;;;;4.33;1.80;;;;;;;13.96;59.42;101518.72;5063899;28;20049;-56
2021/12/05 16:36:59;;;;;;;7.60;2.23;;;;;;;13.96;59.43;101524.31;5071330;28;20135;-54
2021/12/05 16:39:34;;;;;;;12.97;3.43;;;;;;;13.93;59.59;101529.66;5060849;28;20090;-56
2021/12/05 16:42:16;;;;;;;16.63;5.27;;;;;;;13.84;59.67;101518.13;5069560;28;20151;-54
2021/12/05 16:44:55;;;;;;;9.80;3.73;;;;;;;13.89;59.63;101536.97;5066594;28;20079;-53
2021/12/05 16:47:25;;;;;;;11.10;3.47;;;;;;;13.90;59.67;101533.03;5047803;28;20470;-52
2021/12/05 16:49:55;;;;;;;13.85;3.22;;;;;;;13.83;59.83;101527.69;5045668;28;20638;-54
2021/12/05 16:52:23;;;;;;;13.52;2.60;;;;;;;13.83;59.96;101541.72;5053838;28;20127;-55
2021/12/05 16:55:10;;;;;;;5.10;2.00;;;;;;;13.72;60.30;101540.03;5059001;28;20041;-55
2021/12/05 16:57:52;;;;;;;9.60;2.20;;;;;;;13.74;60.45;101538.63;5059062;28;20135;-54